TN47 weather

Needham's Airport
Arlington, Tennessee, United States

Public forecast

Using degrees Fahrenheit for public forecast. Weather courtesy of forecast.io.

METAR (pilot weather report)

Closest report is Millington-Memphis Airport, 7.5 nm (13.9 km) WNW. Retrieved 2019/06/19 10:30 UTC (8 minutes ago):

KNQA 191030Z 16003KT 10SM CLR 22/21 A2979

TAF (pilot weather forecast)

Closest forecast is Memphis International Airport, 18.8 nm (34.8 km) SW. Retrieved 2019/06/19 06:34 UTC (4 hours ago):

TAF KMEM 190531Z 1906/2012 19006KT P6SM FEW035 BKN090 TEMPO 1910/1913 5SM BR SCT035 FM191600 22012G18KT P6SM VCSH SCT040 BKN150 FM200000 20012G18KT P6SM VCTS SCT045CB BKN120 TEMPO 2003/2007 VRB15G30KT 1SM +TSRA OVC030CB